Time;durP1;ratioP1;P1;durP2;ratioP2;P2;SDS_P1;SDS_P2;PMS_P1;PMS_P2;Temp;Humidity;BMP_temperature;BMP_pressure;BME280_temperature;BME280_humidity;BME280_pressure;Samples;Min_cycle;Max_cycle;Signal;HPM_P1;HPM_P2
2022/03/17 00:00:29;;;;;;;32.10;19.05;;;;;;;;;;4800464;29;20457;-85
2022/03/17 00:02:57;;;;;;;18.08;13.52;;;;;;;;;;4794160;29;20074;-84
2022/03/17 00:05:25;;;;;;;24.52;17.27;;;;;;;;;;4769171;29;20485;-84
2022/03/17 00:07:53;;;;;;;30.75;19.00;;;;;;;;;;4797866;29;20517;-86
2022/03/17 00:10:22;;;;;;;36.08;20.70;;;;;;;;;;4811561;29;20058;-85
2022/03/17 00:12:50;;;;;;;31.27;18.95;;;;;;;;;;4818643;29;20053;-85
2022/03/17 00:15:18;;;;;;;28.00;16.08;;;;;;;;;;4802726;29;20496;-85
2022/03/17 00:17:46;;;;;;;33.05;21.30;;;;;;;;;;4816929;29;20054;-85
2022/03/17 00:20:14;;;;;;;28.05;19.45;;;;;;;;;;4818438;29;22470;-84
2022/03/17 00:22:42;;;;;;;23.90;17.17;;;;;;;;;;4809877;29;20540;-86
2022/03/17 00:25:11;;;;;;;29.25;15.88;;;;;;;;;;4779661;29;20055;-85
2022/03/17 00:27:39;;;;;;;30.42;17.58;;;;;;;;;;4779052;30;20067;-85
2022/03/17 00:30:08;;;;;;;27.60;17.40;;;;;;;;;;4749858;30;20058;-85
2022/03/17 00:32:38;;;;;;;24.58;16.92;;;;;;;;;;4746737;30;20055;-86
2022/03/17 00:37:54;;;;;;;19.42;13.93;;;;;;;;;;4763851;30;20054;-86
2022/03/17 00:40:23;;;;;;;27.55;15.68;;;;;;;;;;4778391;30;20052;-85
2022/03/17 00:42:53;;;;;;;23.48;18.30;;;;;;;;;;4764464;30;20063;-85
2022/03/17 00:45:21;;;;;;;26.90;18.58;;;;;;;;;;4778950;29;20055;-85
2022/03/17 00:47:49;;;;;;;33.30;21.40;;;;;;;;;;4764789;30;20600;-85
2022/03/17 00:50:17;;;;;;;28.60;18.02;;;;;;;;;;4778829;30;20054;-85
2022/03/17 00:52:46;;;;;;;24.88;16.90;;;;;;;;;;4778830;29;20085;-85
2022/03/17 00:55:14;;;;;;;27.30;18.15;;;;;;;;;;4779117;30;20059;-84
2022/03/17 00:57:45;;;;;;;27.08;19.88;;;;;;;;;;4796308;29;20065;-85
2022/03/17 01:00:18;;;;;;;29.98;20.40;;;;;;;;;;4783623;29;20051;-85
2022/03/17 01:02:47;;;;;;;45.28;30.80;;;;;;;;;;4812704;29;20424;-86
2022/03/17 01:05:16;;;;;;;27.60;16.48;;;;;;;;;;4788438;29;20505;-86
2022/03/17 01:07:44;;;;;;;29.35;17.92;;;;;;;;;;4815095;29;20050;-79
2022/03/17 01:10:15;;;;;;;35.95;19.17;;;;;;;;;;4788188;29;20516;-83
2022/03/17 01:12:47;;;;;;;27.98;18.85;;;;;;;;;;4803680;29;20049;-85
2022/03/17 01:15:16;;;;;;;27.80;18.45;;;;;;;;;;4818641;29;20062;-84
2022/03/17 01:17:45;;;;;;;31.05;17.58;;;;;;;;;;4811171;29;20962;-85
2022/03/17 01:20:13;;;;;;;17.30;13.40;;;;;;;;;;4804431;29;20062;-85
2022/03/17 01:22:41;;;;;;;32.17;22.10;;;;;;;;;;4820828;29;20057;-85
2022/03/17 01:25:09;;;;;;;29.25;20.13;;;;;;;;;;4821596;29;20061;-83
2022/03/17 01:27:38;;;;;;;31.30;20.40;;;;;;;;;;4788094;29;20062;-86
2022/03/17 01:30:10;;;;;;;24.35;16.08;;;;;;;;;;4809509;29;20050;-86
2022/03/17 01:32:38;;;;;;;41.00;24.98;;;;;;;;;;4805074;29;20418;-85
2022/03/17 01:35:07;;;;;;;30.85;25.45;;;;;;;;;;4805503;29;20055;-85
2022/03/17 01:38:11;;;;;;;33.08;19.02;;;;;;;;;;4820697;29;20473;-83
2022/03/17 01:41:48;;;;;;;32.15;22.95;;;;;;;;;;4752125;30;20498;-86
2022/03/17 01:44:20;;;;;;;29.02;19.35;;;;;;;;;;4782127;30;20048;-86
2022/03/17 01:49:34;;;;;;;32.15;21.40;;;;;;;;;;4791080;29;20046;-84
2022/03/17 01:52:03;;;;;;;34.08;20.27;;;;;;;;;;4820201;29;20065;-85
2022/03/17 01:54:31;;;;;;;37.15;23.92;;;;;;;;;;4804719;29;20050;-85
2022/03/17 01:57:06;;;;;;;30.85;20.05;;;;;;;;;;4819659;29;20615;-86
2022/03/17 01:59:35;;;;;;;24.10;18.35;;;;;;;;;;4804568;29;20050;-85
2022/03/17 02:02:08;;;;;;;40.42;21.45;;;;;;;;;;4814582;29;20051;-85
2022/03/17 02:04:36;;;;;;;35.33;20.63;;;;;;;;;;4785886;29;20054;-85
2022/03/17 02:07:05;;;;;;;33.17;17.63;;;;;;;;;;4812452;29;20047;-85
2022/03/17 02:09:34;;;;;;;37.83;24.90;;;;;;;;;;4788082;29;20050;-85
2022/03/17 02:14:54;;;;;;;31.48;22.30;;;;;;;;;;4803913;29;20050;-85
2022/03/17 02:17:23;;;;;;;32.92;21.55;;;;;;;;;;4804271;29;20849;-85
2022/03/17 02:19:51;;;;;;;28.80;23.92;;;;;;;;;;4803921;29;20591;-85
2022/03/17 02:22:21;;;;;;;35.05;26.63;;;;;;;;;;4803233;29;20046;-86
2022/03/17 02:27:38;;;;;;;34.10;26.08;;;;;;;;;;4811491;29;20784;-85
2022/03/17 02:30:07;;;;;;;31.40;18.15;;;;;;;;;;4801972;29;20047;-85
2022/03/17 02:32:35;;;;;;;29.65;17.92;;;;;;;;;;4785029;29;20059;-84
2022/03/17 02:35:08;;;;;;;29.52;18.08;;;;;;;;;;4787661;29;20082;-85
2022/03/17 02:37:37;;;;;;;32.22;19.98;;;;;;;;;;4803012;29;20050;-85
2022/03/17 02:40:11;;;;;;;33.33;27.25;;;;;;;;;;4804226;29;20058;-85
2022/03/17 02:42:39;;;;;;;26.52;16.85;;;;;;;;;;4782218;29;20051;-84
2022/03/17 02:45:10;;;;;;;23.70;16.88;;;;;;;;;;4819863;29;20137;-85
2022/03/17 02:47:39;;;;;;;42.83;24.35;;;;;;;;;;4804080;29;20053;-86
2022/03/17 02:50:10;;;;;;;29.10;22.17;;;;;;;;;;4785926;29;20043;-85
2022/03/17 02:52:38;;;;;;;45.33;22.07;;;;;;;;;;4802431;29;20062;-85
2022/03/17 02:55:08;;;;;;;35.92;21.85;;;;;;;;;;4789466;29;20177;-86
2022/03/17 02:57:37;;;;;;;35.85;19.98;;;;;;;;;;4799527;29;20055;-86
2022/03/17 03:00:06;;;;;;;36.20;18.92;;;;;;;;;;4803378;29;20050;-85
2022/03/17 03:02:34;;;;;;;34.83;18.08;;;;;;;;;;4819932;29;20077;-85
2022/03/17 03:05:03;;;;;;;27.23;19.17;;;;;;;;;;4819649;29;20057;-85
2022/03/17 03:07:34;;;;;;;42.85;24.70;;;;;;;;;;4818977;29;20053;-79
2022/03/17 03:10:03;;;;;;;34.13;19.52;;;;;;;;;;4802014;29;20051;-85
2022/03/17 03:12:31;;;;;;;31.40;20.75;;;;;;;;;;4819004;29;20053;-86
2022/03/17 03:15:03;;;;;;;34.63;23.92;;;;;;;;;;4789306;29;20062;-85
2022/03/17 03:17:33;;;;;;;37.13;24.83;;;;;;;;;;4819787;29;20042;-86
2022/03/17 03:20:02;;;;;;;26.20;23.45;;;;;;;;;;4802920;29;20524;-86
2022/03/17 03:22:36;;;;;;;35.20;20.00;;;;;;;;;;4812929;29;20054;-86
2022/03/17 03:25:05;;;;;;;32.60;19.60;;;;;;;;;;4802636;29;20054;-85
2022/03/17 03:27:33;;;;;;;27.50;19.48;;;;;;;;;;4803379;29;20050;-84
2022/03/17 03:30:01;;;;;;;42.05;24.52;;;;;;;;;;4794036;29;20059;-86
2022/03/17 03:32:47;;;;;;;43.67;27.75;;;;;;;;;;4784715;29;20439;-86
2022/03/17 03:39:38;;;;;;;29.75;23.52;;;;;;;;;;4818689;29;20840;-85
2022/03/17 03:42:27;;;;;;;39.67;23.85;;;;;;;;;;4801183;29;20058;-84
2022/03/17 03:45:07;;;;;;;39.17;21.95;;;;;;;;;;4802570;29;20046;-86
2022/03/17 03:47:36;;;;;;;41.00;26.30;;;;;;;;;;4788411;29;20501;-85
2022/03/17 03:50:04;;;;;;;30.38;22.15;;;;;;;;;;4787356;29;20849;-86
2022/03/17 03:52:50;;;;;;;39.85;23.13;;;;;;;;;;4799446;29;20046;-85
2022/03/17 03:55:18;;;;;;;38.45;22.80;;;;;;;;;;4776005;29;20055;-85
2022/03/17 03:57:47;;;;;;;42.22;25.77;;;;;;;;;;4783300;29;20059;-85
2022/03/17 04:00:33;;;;;;;42.50;25.50;;;;;;;;;;4809917;29;20051;-85
2022/03/17 04:03:04;;;;;;;44.25;24.85;;;;;;;;;;4810906;29;20062;-85
2022/03/17 04:05:48;;;;;;;45.72;28.00;;;;;;;;;;4772839;29;20509;-85
2022/03/17 04:09:08;;;;;;;39.85;24.40;;;;;;;;;;4781782;29;20050;-85
2022/03/17 04:12:29;;;;;;;43.03;24.50;;;;;;;;;;4773274;29;20066;-86
2022/03/17 04:15:20;;;;;;;39.67;24.30;;;;;;;;;;4798882;29;20431;-86
2022/03/17 04:18:38;;;;;;;43.40;25.58;;;;;;;;;;4805059;29;20043;-86
2022/03/17 04:21:59;;;;;;;37.03;25.42;;;;;;;;;;4800905;29;20046;-85
2022/03/17 04:24:58;;;;;;;43.63;23.63;;;;;;;;;;4786848;29;20480;-86
2022/03/17 04:27:26;;;;;;;41.53;27.33;;;;;;;;;;4803923;29;20050;-85
2022/03/17 04:29:55;;;;;;;36.03;21.70;;;;;;;;;;4778893;29;20050;-85
2022/03/17 04:32:23;;;;;;;42.70;25.35;;;;;;;;;;4818880;29;20047;-86
2022/03/17 04:34:52;;;;;;;35.45;23.38;;;;;;;;;;4788892;29;20050;-84
2022/03/17 04:37:27;;;;;;;43.88;26.42;;;;;;;;;;4802930;29;20062;-86
2022/03/17 04:39:55;;;;;;;46.67;28.52;;;;;;;;;;4803333;29;20069;-86
2022/03/17 04:42:23;;;;;;;45.13;25.10;;;;;;;;;;4819933;29;20081;-86
2022/03/17 04:44:51;;;;;;;41.28;24.98;;;;;;;;;;4803143;29;20061;-86
2022/03/17 04:47:21;;;;;;;52.65;29.23;;;;;;;;;;4803221;29;20050;-86
2022/03/17 04:49:49;;;;;;;39.42;25.70;;;;;;;;;;4802850;29;20046;-86
2022/03/17 04:55:04;;;;;;;42.38;26.83;;;;;;;;;;4817440;29;20057;-85
2022/03/17 04:57:33;;;;;;;48.10;30.27;;;;;;;;;;4816072;29;20061;-85
2022/03/17 05:00:02;;;;;;;39.22;28.58;;;;;;;;;;4801134;29;20806;-84
2022/03/17 05:02:30;;;;;;;48.83;28.52;;;;;;;;;;4818405;29;20058;-84
2022/03/17 05:05:33;;;;;;;44.88;25.02;;;;;;;;;;4792318;29;20699;-88
2022/03/17 05:08:41;;;;;;;40.33;24.73;;;;;;;;;;4774164;29;20070;-86
2022/03/17 05:12:09;;;;;;;46.42;26.77;;;;;;;;;;4782789;29;20059;-87
2022/03/17 05:15:20;;;;;;;38.67;22.63;;;;;;;;;;4707946;30;20067;-87
2022/03/17 05:19:23;;;;;;;39.58;25.40;;;;;;;;;;4699783;30;20106;-87
2022/03/17 05:23:05;;;;;;;47.42;25.80;;;;;;;;;;4665003;30;20066;-88
2022/03/17 05:26:32;;;;;;;41.80;22.40;;;;;;;;;;4623587;30;20860;-87
2022/03/17 05:29:55;;;;;;;41.10;25.02;;;;;;;;;;4650306;30;20053;-86
2022/03/17 05:33:34;;;;;;;46.17;24.70;;;;;;;;;;4780095;24;20492;-86
2022/03/17 05:39:52;;;;;;;30.48;15.85;;;;;;;;;;4800216;29;20063;-91
2022/03/17 05:42:23;;;;;;;38.45;25.52;;;;;;;;;;4798798;29;20069;-87
2022/03/17 05:44:52;;;;;;;21.08;15.45;;;;;;;;;;4802166;29;20073;-85
2022/03/17 05:47:20;;;;;;;36.60;24.10;;;;;;;;;;4814176;29;20047;-85
2022/03/17 05:49:48;;;;;;;30.73;20.27;;;;;;;;;;4817552;29;20050;-84
2022/03/17 05:52:16;;;;;;;35.08;20.48;;;;;;;;;;4819250;29;20046;-86
2022/03/17 05:57:59;;;;;;;30.40;19.20;;;;;;;;;;4804495;29;21147;-77
2022/03/17 06:00:28;;;;;;;36.10;19.55;;;;;;;;;;4817837;29;20051;-76
2022/03/17 06:02:57;;;;;;;34.42;22.98;;;;;;;;;;4817229;29;20066;-77
2022/03/17 06:05:26;;;;;;;28.42;19.08;;;;;;;;;;4820275;29;20060;-84
2022/03/17 06:08:01;;;;;;;31.92;21.90;;;;;;;;;;4819184;29;20706;-84
2022/03/17 06:11:54;;;;;;;;;;;;;;;;;;;;;
2022/03/17 06:14:30;;;;;;;37.00;22.55;;;;;;;;;;4800183;29;20133;-83
2022/03/17 06:17:01;;;;;;;29.25;20.60;;;;;;;;;;4814217;29;20058;-86
2022/03/17 06:19:32;;;;;;;34.90;20.42;;;;;;;;;;4784575;29;20099;-86
2022/03/17 06:22:02;;;;;;;36.92;23.95;;;;;;;;;;4785414;29;20051;-83
2022/03/17 06:24:33;;;;;;;43.95;26.25;;;;;;;;;;4770640;29;20067;-83
2022/03/17 06:27:13;;;;;;;31.88;21.85;;;;;;;;;;4771187;29;20059;-84
2022/03/17 06:29:53;;;;;;;36.50;22.13;;;;;;;;;;4786454;29;20062;-84
2022/03/17 06:32:21;;;;;;;34.25;19.83;;;;;;;;;;4801166;29;20569;-83
2022/03/17 06:34:50;;;;;;;35.42;21.58;;;;;;;;;;4774001;29;20054;-82
2022/03/17 06:37:18;;;;;;;32.13;22.58;;;;;;;;;;4779143;29;20197;-83
2022/03/17 06:39:46;;;;;;;29.35;19.27;;;;;;;;;;4803682;29;20398;-82
2022/03/17 06:42:16;;;;;;;28.58;18.80;;;;;;;;;;4802223;29;20050;-83
2022/03/17 06:44:44;;;;;;;32.90;21.13;;;;;;;;;;4800925;29;20050;-83
2022/03/17 06:47:12;;;;;;;30.48;20.27;;;;;;;;;;4818310;29;20409;-83
2022/03/17 06:49:43;;;;;;;35.90;24.33;;;;;;;;;;4788183;29;20505;-83
2022/03/17 06:52:11;;;;;;;27.73;19.00;;;;;;;;;;4787857;29;20054;-82
2022/03/17 06:54:40;;;;;;;30.55;21.80;;;;;;;;;;4788571;29;20065;-83
2022/03/17 06:57:09;;;;;;;31.10;21.35;;;;;;;;;;4776946;29;20062;-82
2022/03/17 06:59:37;;;;;;;32.78;21.08;;;;;;;;;;4819690;29;20050;-82
2022/03/17 07:02:05;;;;;;;31.95;21.95;;;;;;;;;;4787769;29;20046;-82
2022/03/17 07:04:34;;;;;;;34.67;23.92;;;;;;;;;;4818960;29;20051;-82
2022/03/17 07:07:02;;;;;;;37.10;22.02;;;;;;;;;;4802782;29;20062;-82
2022/03/17 07:09:30;;;;;;;29.02;21.65;;;;;;;;;;4787673;29;20095;-82
2022/03/17 07:11:58;;;;;;;32.30;19.63;;;;;;;;;;4786587;29;20137;-85
2022/03/17 07:14:26;;;;;;;30.42;22.15;;;;;;;;;;4787287;29;20101;-85
2022/03/17 07:16:54;;;;;;;33.15;18.08;;;;;;;;;;4772482;29;20057;-85
2022/03/17 07:19:23;;;;;;;35.13;23.83;;;;;;;;;;4799789;29;20062;-85
2022/03/17 07:21:55;;;;;;;29.70;20.98;;;;;;;;;;4790640;29;20562;-88
2022/03/17 07:24:26;;;;;;;28.13;19.05;;;;;;;;;;4809477;29;20081;-89
2022/03/17 07:26:54;;;;;;;13.75;11.77;;;;;;;;;;4815661;29;20064;-86
2022/03/17 07:29:22;;;;;;;31.23;23.15;;;;;;;;;;4824368;29;20058;-84
2022/03/17 07:31:54;;;;;;;22.23;14.23;;;;;;;;;;4834270;29;20053;-88
2022/03/17 07:34:24;;;;;;;32.97;20.15;;;;;;;;;;4807483;29;20056;-84
2022/03/17 07:36:59;;;;;;;29.40;20.30;;;;;;;;;;4824977;29;20781;-86
2022/03/17 07:39:27;;;;;;;41.30;23.38;;;;;;;;;;4807391;29;20050;-84
2022/03/17 07:41:56;;;;;;;33.65;17.15;;;;;;;;;;4792069;29;20050;-88
2022/03/17 07:44:49;;;;;;;27.02;19.23;;;;;;;;;;4798126;29;20049;-87
2022/03/17 07:47:35;;;;;;;32.90;21.35;;;;;;;;;;4823654;29;20046;-83
2022/03/17 07:50:04;;;;;;;15.63;12.55;;;;;;;;;;4808044;29;20049;-85
2022/03/17 07:52:33;;;;;;;29.58;20.45;;;;;;;;;;4800946;29;20050;-83
2022/03/17 07:55:01;;;;;;;30.88;18.67;;;;;;;;;;4808238;29;20432;-84
2022/03/17 07:57:35;;;;;;;35.88;24.83;;;;;;;;;;4786247;29;20844;-84
2022/03/17 08:00:04;;;;;;;36.22;23.25;;;;;;;;;;4790790;29;20069;-84
2022/03/17 08:02:43;;;;;;;27.73;20.98;;;;;;;;;;4803222;29;20054;-84
2022/03/17 08:05:12;;;;;;;29.67;19.10;;;;;;;;;;4805595;29;20058;-82
2022/03/17 08:07:40;;;;;;;33.72;21.17;;;;;;;;;;4820803;29;20063;-83
2022/03/17 08:10:08;;;;;;;33.28;17.10;;;;;;;;;;4819350;29;20057;-83
2022/03/17 08:12:37;;;;;;;31.13;20.90;;;;;;;;;;4804688;29;20050;-85
2022/03/17 08:15:06;;;;;;;37.08;20.27;;;;;;;;;;4804578;29;20046;-85
2022/03/17 08:17:34;;;;;;;30.15;20.30;;;;;;;;;;4804618;29;20050;-84
2022/03/17 08:20:05;;;;;;;35.53;24.38;;;;;;;;;;4796749;29;20700;-84
2022/03/17 08:22:34;;;;;;;31.95;22.25;;;;;;;;;;4786548;29;20058;-84
2022/03/17 08:25:15;;;;;;;32.35;17.48;;;;;;;;;;4786481;29;20061;-84
2022/03/17 08:27:56;;;;;;;34.03;22.33;;;;;;;;;;4787646;29;20062;-84
2022/03/17 08:30:24;;;;;;;32.00;17.17;;;;;;;;;;4802021;29;20092;-84
2022/03/17 08:32:52;;;;;;;32.50;23.48;;;;;;;;;;4782961;29;20051;-83
2022/03/17 08:35:20;;;;;;;35.88;22.08;;;;;;;;;;4784571;29;20061;-84
2022/03/17 08:37:50;;;;;;;29.33;18.85;;;;;;;;;;4783284;29;20050;-84
2022/03/17 08:40:19;;;;;;;27.25;15.80;;;;;;;;;;4767923;29;20054;-84
2022/03/17 08:42:47;;;;;;;28.48;20.75;;;;;;;;;;4785549;29;20065;-83
2022/03/17 08:50:49;;;;;;;28.88;20.60;;;;;;;;;;4811165;29;20050;-85
2022/03/17 08:53:17;;;;;;;29.92;16.10;;;;;;;;;;4768221;29;20055;-84
2022/03/17 08:55:45;;;;;;;24.40;17.17;;;;;;;;;;4783234;29;20863;-84
2022/03/17 08:58:16;;;;;;;28.20;20.70;;;;;;;;;;4782574;29;20058;-84
2022/03/17 09:00:44;;;;;;;29.80;20.33;;;;;;;;;;4783014;29;20051;-84
2022/03/17 09:03:14;;;;;;;27.45;16.92;;;;;;;;;;4798892;29;20059;-84
2022/03/17 09:05:42;;;;;;;25.10;16.77;;;;;;;;;;4782914;29;20047;-84
2022/03/17 09:08:10;;;;;;;29.38;18.65;;;;;;;;;;4782622;29;20418;-84
2022/03/17 09:10:39;;;;;;;26.52;17.58;;;;;;;;;;4783200;29;20414;-85
2022/03/17 09:13:07;;;;;;;22.65;16.77;;;;;;;;;;4767417;29;20046;-85
2022/03/17 09:15:37;;;;;;;25.67;15.23;;;;;;;;;;4768829;29;20055;-84
2022/03/17 09:18:10;;;;;;;28.05;16.70;;;;;;;;;;4770368;29;20054;-85
2022/03/17 09:20:41;;;;;;;26.63;17.95;;;;;;;;;;4785827;29;20050;-85
2022/03/17 09:23:16;;;;;;;29.58;18.60;;;;;;;;;;4787135;29;20058;-85
2022/03/17 09:25:45;;;;;;;23.17;17.20;;;;;;;;;;4782234;29;20071;-84
2022/03/17 09:28:14;;;;;;;22.92;14.73;;;;;;;;;;4797727;29;20051;-84
2022/03/17 09:30:43;;;;;;;21.42;16.55;;;;;;;;;;4783489;29;20062;-84
2022/03/17 09:33:11;;;;;;;32.00;21.88;;;;;;;;;;4767645;29;20066;-85
2022/03/17 09:35:39;;;;;;;27.40;19.65;;;;;;;;;;4783190;29;20059;-85
2022/03/17 09:38:09;;;;;;;21.90;16.75;;;;;;;;;;4783635;29;20059;-84
2022/03/17 09:40:38;;;;;;;26.17;15.48;;;;;;;;;;4786028;29;20619;-83
2022/03/17 09:43:18;;;;;;;25.20;16.70;;;;;;;;;;4774391;29;20058;-84
2022/03/17 09:45:49;;;;;;;31.27;16.98;;;;;;;;;;4785794;29;20055;-84
2022/03/17 09:48:18;;;;;;;;;;;;;;;;;;4786226;29;20050;-84
2022/03/17 09:50:46;;;;;;;21.13;14.77;;;;;;;;;;4786469;29;19925;-84
2022/03/17 09:53:14;;;;;;;20.90;14.52;;;;;;;;;;4785700;29;20066;-84
2022/03/17 09:55:43;;;;;;;24.98;14.98;;;;;;;;;;4801349;29;20506;-84
2022/03/17 09:58:12;;;;;;;21.90;12.32;;;;;;;;;;4800171;29;20055;-84
2022/03/17 10:00:49;;;;;;;19.42;14.40;;;;;;;;;;4785579;29;20059;-84
2022/03/17 10:03:18;;;;;;;24.70;15.40;;;;;;;;;;4786063;29;20059;-85
2022/03/17 10:05:47;;;;;;;23.35;14.40;;;;;;;;;;4801709;29;20059;-83
2022/03/17 10:08:21;;;;;;;22.27;12.57;;;;;;;;;;4784860;29;20093;-83
2022/03/17 10:10:49;;;;;;;20.48;16.48;;;;;;;;;;4801778;29;20046;-84
2022/03/17 10:13:19;;;;;;;23.58;13.27;;;;;;;;;;4785352;29;20058;-84
2022/03/17 10:16:05;;;;;;;22.80;15.05;;;;;;;;;;4801122;29;20055;-83
2022/03/17 10:18:37;;;;;;;22.02;12.60;;;;;;;;;;4757778;29;20086;-84
2022/03/17 10:21:06;;;;;;;20.05;14.60;;;;;;;;;;4785647;29;20054;-79
2022/03/17 10:23:35;;;;;;;31.77;16.98;;;;;;;;;;4801814;29;20054;-79
2022/03/17 10:26:06;;;;;;;34.20;13.55;;;;;;;;;;4801373;29;20047;-79
2022/03/17 10:28:36;;;;;;;18.52;12.93;;;;;;;;;;4801742;29;20070;-79
2022/03/17 10:31:11;;;;;;;23.90;15.02;;;;;;;;;;4803513;29;20425;-79
2022/03/17 10:33:40;;;;;;;24.58;15.60;;;;;;;;;;4813153;29;20081;-79
2022/03/17 10:36:41;;;;;;;21.48;15.43;;;;;;;;;;4830050;29;20045;-79
2022/03/17 10:39:09;;;;;;;22.77;14.93;;;;;;;;;;4839674;29;20062;-79
2022/03/17 10:41:55;;;;;;;25.85;15.43;;;;;;;;;;4806760;29;20054;-79
2022/03/17 10:44:24;;;;;;;22.23;13.40;;;;;;;;;;4822167;29;20793;-79
2022/03/17 10:46:56;;;;;;;22.27;13.18;;;;;;;;;;4808014;29;20069;-79
2022/03/17 10:49:25;;;;;;;28.25;14.38;;;;;;;;;;4821281;29;20420;-79
2022/03/17 10:51:54;;;;;;;20.42;13.15;;;;;;;;;;4839483;29;20054;-79
2022/03/17 10:54:23;;;;;;;22.33;13.80;;;;;;;;;;4838476;29;20053;-79
2022/03/17 10:56:58;;;;;;;17.55;12.93;;;;;;;;;;4822006;29;20054;-79
2022/03/17 10:59:43;;;;;;;22.95;14.40;;;;;;;;;;4825776;29;20054;-80
2022/03/17 11:02:12;;;;;;;20.67;14.98;;;;;;;;;;4820946;29;20062;-79
2022/03/17 11:04:43;;;;;;;23.55;13.13;;;;;;;;;;4804632;29;20077;-80
2022/03/17 11:07:17;;;;;;;18.30;15.35;;;;;;;;;;4820858;29;20425;-79
2022/03/17 11:09:46;;;;;;;26.98;13.23;;;;;;;;;;4804277;29;20410;-79
2022/03/17 11:12:20;;;;;;;23.33;13.98;;;;;;;;;;4820711;29;20053;-79
2022/03/17 11:14:50;;;;;;;19.10;14.38;;;;;;;;;;4804694;29;20501;-80
2022/03/17 11:17:26;;;;;;;17.45;12.40;;;;;;;;;;4820071;29;20038;-79
2022/03/17 11:19:59;;;;;;;19.92;16.05;;;;;;;;;;4835823;29;20049;-81
2022/03/17 11:22:29;;;;;;;21.85;16.92;;;;;;;;;;4822170;29;20511;-80
2022/03/17 11:25:16;;;;;;;19.35;14.48;;;;;;;;;;4818750;29;20533;-80
2022/03/17 11:27:47;;;;;;;22.65;14.90;;;;;;;;;;4791039;29;20066;-80
2022/03/17 11:30:16;;;;;;;20.35;13.77;;;;;;;;;;4822735;29;20055;-79
2022/03/17 11:32:54;;;;;;;22.00;13.43;;;;;;;;;;4805819;29;20063;-80
2022/03/17 11:35:26;;;;;;;18.70;14.15;;;;;;;;;;4806419;29;20062;-80
2022/03/17 11:38:13;;;;;;;21.02;14.82;;;;;;;;;;4822104;29;20050;-82
2022/03/17 11:40:59;;;;;;;23.70;13.50;;;;;;;;;;4821578;29;20501;-79
2022/03/17 11:43:39;;;;;;;23.10;15.00;;;;;;;;;;4822477;29;20050;-79
2022/03/17 11:46:11;;;;;;;21.75;13.75;;;;;;;;;;4822399;29;20050;-79
2022/03/17 11:48:39;;;;;;;22.13;15.70;;;;;;;;;;4826637;29;20046;-79
2022/03/17 11:51:08;;;;;;;22.67;13.88;;;;;;;;;;4837821;29;20053;-79
2022/03/17 11:53:39;;;;;;;19.95;15.77;;;;;;;;;;4829858;29;20049;-79
2022/03/17 11:56:35;;;;;;;22.13;13.77;;;;;;;;;;4812854;29;20607;-87
2022/03/17 11:59:07;;;;;;;19.73;15.27;;;;;;;;;;4812458;29;20046;-85
2022/03/17 12:01:40;;;;;;;21.42;14.60;;;;;;;;;;4822827;29;20504;-85
2022/03/17 12:04:09;;;;;;;17.73;12.43;;;;;;;;;;4808169;29;20092;-85
2022/03/17 12:06:38;;;;;;;20.25;13.90;;;;;;;;;;4823974;29;20045;-85
2022/03/17 12:09:13;;;;;;;17.38;12.80;;;;;;;;;;4808067;29;20050;-85
2022/03/17 12:11:43;;;;;;;24.65;15.65;;;;;;;;;;4823318;29;20053;-85
2022/03/17 12:14:14;;;;;;;19.30;13.00;;;;;;;;;;4822976;29;20042;-85
2022/03/17 12:16:46;;;;;;;23.65;15.15;;;;;;;;;;4839690;29;20295;-85
2022/03/17 12:19:31;;;;;;;23.67;14.82;;;;;;;;;;4823404;29;20046;-85
2022/03/17 12:22:02;;;;;;;19.42;15.95;;;;;;;;;;4822528;29;20053;-85
2022/03/17 12:24:41;;;;;;;21.65;16.67;;;;;;;;;;4823143;29;20046;-85
2022/03/17 12:27:11;;;;;;;23.00;14.63;;;;;;;;;;4807820;29;20058;-85
2022/03/17 12:29:40;;;;;;;21.92;16.55;;;;;;;;;;4792785;29;20073;-85
2022/03/17 12:32:18;;;;;;;20.48;14.20;;;;;;;;;;4803378;29;20077;-85
2022/03/17 12:34:48;;;;;;;21.30;13.20;;;;;;;;;;4811800;29;20582;-85
2022/03/17 12:37:17;;;;;;;17.60;14.98;;;;;;;;;;4804619;29;20077;-85
2022/03/17 12:39:50;;;;;;;21.80;15.40;;;;;;;;;;4789606;29;20066;-85
2022/03/17 12:42:25;;;;;;;25.55;13.18;;;;;;;;;;4804203;29;20061;-85
2022/03/17 12:45:21;;;;;;;26.27;16.83;;;;;;;;;;4804481;29;20050;-85
2022/03/17 12:47:56;;;;;;;25.02;14.05;;;;;;;;;;4818803;29;20062;-85
2022/03/17 12:50:28;;;;;;;23.98;14.90;;;;;;;;;;4804105;29;20054;-85
2022/03/17 12:52:56;;;;;;;22.67;16.17;;;;;;;;;;4819913;29;20062;-85
2022/03/17 12:55:26;;;;;;;24.13;13.40;;;;;;;;;;4789229;29;20055;-85
2022/03/17 12:57:56;;;;;;;27.52;16.60;;;;;;;;;;4819583;29;20473;-85
2022/03/17 13:00:24;;;;;;;29.65;18.33;;;;;;;;;;4804616;29;20053;-85
2022/03/17 13:02:54;;;;;;;25.65;15.05;;;;;;;;;;4789752;29;20050;-85
2022/03/17 13:08:11;;;;;;;21.52;14.30;;;;;;;;;;4789127;29;20412;-85
2022/03/17 13:16:14;;;;;;;27.35;17.70;;;;;;;;;;4808092;29;20047;-85
2022/03/17 13:18:43;;;;;;;23.63;14.93;;;;;;;;;;4831643;29;20053;-85
2022/03/17 13:21:15;;;;;;;21.88;14.35;;;;;;;;;;4842570;29;20042;-85
2022/03/17 13:23:43;;;;;;;22.63;13.60;;;;;;;;;;4811743;29;20045;-85
2022/03/17 13:26:20;;;;;;;21.95;12.38;;;;;;;;;;4825240;29;20053;-85
2022/03/17 13:29:06;;;;;;;18.00;12.02;;;;;;;;;;4841704;29;20492;-85
2022/03/17 13:31:41;;;;;;;19.85;13.20;;;;;;;;;;4796587;29;20061;-85
2022/03/17 13:34:09;;;;;;;19.67;12.75;;;;;;;;;;4825652;29;20404;-85
2022/03/17 13:36:52;;;;;;;19.00;13.27;;;;;;;;;;4842294;29;20057;-85
2022/03/17 13:39:20;;;;;;;24.45;13.40;;;;;;;;;;4810703;29;20050;-85
2022/03/17 13:41:58;;;;;;;27.67;15.95;;;;;;;;;;4825433;29;20575;-85
2022/03/17 13:44:41;;;;;;;35.33;16.73;;;;;;;;;;4842040;29;20501;-85
2022/03/17 13:47:10;;;;;;;29.05;16.55;;;;;;;;;;4811068;29;20053;-85
2022/03/17 13:49:39;;;;;;;27.90;19.95;;;;;;;;;;4825122;29;20493;-85
2022/03/17 13:52:10;;;;;;;32.83;16.00;;;;;;;;;;4795388;29;20068;-85
2022/03/17 13:54:39;;;;;;;21.57;14.77;;;;;;;;;;4842932;29;20053;-85
2022/03/17 13:57:07;;;;;;;21.80;16.83;;;;;;;;;;4819359;29;20291;-85
2022/03/17 13:59:35;;;;;;;26.48;16.13;;;;;;;;;;4792607;29;20061;-85
2022/03/17 14:02:13;;;;;;;32.28;18.02;;;;;;;;;;4777283;29;20058;-85
2022/03/17 14:04:57;;;;;;;23.42;16.73;;;;;;;;;;4807278;29;20054;-85
2022/03/17 14:07:26;;;;;;;30.23;17.00;;;;;;;;;;4792744;29;20405;-85
2022/03/17 14:09:55;;;;;;;33.97;16.92;;;;;;;;;;4792734;29;20050;-85
2022/03/17 14:12:23;;;;;;;30.02;17.73;;;;;;;;;;4806787;29;20046;-84
2022/03/17 14:14:51;;;;;;;30.15;18.55;;;;;;;;;;4792470;29;20421;-85
2022/03/17 14:17:19;;;;;;;29.35;17.02;;;;;;;;;;4792342;29;20058;-85
2022/03/17 14:19:49;;;;;;;32.80;18.25;;;;;;;;;;4825832;29;20053;-84
2022/03/17 14:25:04;;;;;;;34.20;19.60;;;;;;;;;;4840802;29;20050;-85
2022/03/17 14:27:32;;;;;;;31.13;18.77;;;;;;;;;;4841889;29;20065;-84
2022/03/17 14:30:00;;;;;;;27.98;18.02;;;;;;;;;;4841158;29;20057;-85
2022/03/17 14:32:29;;;;;;;25.30;15.63;;;;;;;;;;4841431;29;20042;-84
2022/03/17 14:34:56;;;;;;;38.03;18.35;;;;;;;;;;4824590;29;20416;-85
2022/03/17 14:37:24;;;;;;;34.88;20.38;;;;;;;;;;4806627;29;20050;-85
2022/03/17 14:39:52;;;;;;;27.98;19.67;;;;;;;;;;4807041;29;20050;-85
2022/03/17 14:42:21;;;;;;;31.08;18.98;;;;;;;;;;4790965;29;20405;-85
2022/03/17 14:44:49;;;;;;;30.60;19.05;;;;;;;;;;4822949;29;20061;-85
2022/03/17 14:47:18;;;;;;;26.75;17.70;;;;;;;;;;4777516;29;20054;-85
2022/03/17 14:49:46;;;;;;;29.27;16.55;;;;;;;;;;4776818;29;20057;-85
2022/03/17 14:52:14;;;;;;;32.65;17.27;;;;;;;;;;4790988;29;20070;-85
2022/03/17 14:54:42;;;;;;;39.55;18.10;;;;;;;;;;4807043;29;20070;-88
2022/03/17 14:57:12;;;;;;;27.02;19.42;;;;;;;;;;4802872;29;20058;-89
2022/03/17 14:59:43;;;;;;;39.88;21.65;;;;;;;;;;4786857;29;20374;-88
2022/03/17 15:02:16;;;;;;;34.65;23.75;;;;;;;;;;4791582;29;20051;-88
2022/03/17 15:04:49;;;;;;;41.08;20.75;;;;;;;;;;4822339;29;20054;-88
2022/03/17 15:07:24;;;;;;;28.83;17.02;;;;;;;;;;4823191;29;20489;-88
2022/03/17 15:09:55;;;;;;;53.00;20.92;;;;;;;;;;4805830;29;20062;-88
2022/03/17 15:12:26;;;;;;;26.92;19.15;;;;;;;;;;4822061;29;20050;-88
2022/03/17 15:15:03;;;;;;;29.08;20.10;;;;;;;;;;4807367;29;20054;-88
2022/03/17 15:17:34;;;;;;;27.00;17.27;;;;;;;;;;4814422;29;20061;-88
2022/03/17 15:20:09;;;;;;;29.42;19.48;;;;;;;;;;4824800;29;20053;-88
2022/03/17 15:22:40;;;;;;;25.27;16.52;;;;;;;;;;4841323;29;20061;-88
2022/03/17 15:25:17;;;;;;;28.77;20.70;;;;;;;;;;4831978;29;20050;-89
2022/03/17 15:31:13;;;;;;;24.98;17.20;;;;;;;;;;4791420;29;20413;-89
2022/03/17 15:34:01;;;;;;;30.80;18.42;;;;;;;;;;4821930;29;20042;-86
2022/03/17 15:36:53;;;;;;;25.42;16.52;;;;;;;;;;4821388;29;20043;-86
2022/03/17 15:39:21;;;;;;;26.35;18.02;;;;;;;;;;4805734;29;20488;-84
2022/03/17 15:41:49;;;;;;;30.08;20.08;;;;;;;;;;4821615;29;20058;-84